Time;durP1;ratioP1;P1;durP2;ratioP2;P2;SDS_P1;SDS_P2;PMS_P1;PMS_P2;Temp;Humidity;BMP_temperature;BMP_pressure;BME280_temperature;BME280_humidity;BME280_pressure;Samples;Min_cycle;Max_cycle;Signal;HPM_P1;HPM_P2
2021/10/01 00:00:47;;;;;;;16.15;3.38;;;;;;;11.47;90.23;100433.69;5105033;28;20012;-73
2021/10/01 00:03:12;;;;;;;19.45;3.20;;;;;;;11.52;90.51;100442.25;5105028;28;20062;-72
2021/10/01 00:05:39;;;;;;;15.38;2.42;;;;;;;11.57;90.27;100437.88;5105299;28;20027;-72
2021/10/01 00:08:05;;;;;;;16.55;2.65;;;;;;;11.60;90.01;100439.56;5105229;28;20027;-71
2021/10/01 00:10:31;;;;;;;3.22;0.93;;;;;;;11.61;90.08;100439.53;5105112;28;20029;-73
2021/10/01 00:12:56;;;;;;;13.98;2.35;;;;;;;11.62;89.66;100443.03;5105261;28;20100;-72
2021/10/01 00:15:22;;;;;;;16.42;2.00;;;;;;;11.50;89.86;100426.69;5105089;28;20020;-73
2021/10/01 00:17:47;;;;;;;18.42;2.08;;;;;;;11.42;90.42;100457.13;5105170;28;20019;-75
2021/10/01 00:20:13;;;;;;;18.17;2.30;;;;;;;11.28;90.68;100446.84;5105213;28;20567;-75
2021/10/01 00:22:39;;;;;;;13.70;2.28;;;;;;;11.23;91.15;100446.91;5105055;28;20027;-71
2021/10/01 00:25:05;;;;;;;18.95;2.72;;;;;;;11.23;91.40;100436.50;5104929;28;20044;-69
2021/10/01 00:27:30;;;;;;;16.58;2.67;;;;;;;11.21;91.49;100434.81;5104846;28;20036;-69
2021/10/01 00:29:56;;;;;;;15.40;2.35;;;;;;;11.19;91.98;100433.97;5104639;28;20124;-69
2021/10/01 00:32:22;;;;;;;16.02;2.42;;;;;;;11.18;92.29;100429.66;5104654;28;20048;-70
2021/10/01 00:34:49;;;;;;;11.27;3.22;;;;;;;11.20;92.72;100436.53;5104708;28;20050;-69
2021/10/01 00:37:16;;;;;;;14.98;2.88;;;;;;;11.22;92.63;100423.53;5104295;28;20333;-69
2021/10/01 00:39:41;;;;;;;8.85;2.03;;;;;;;11.21;92.53;100419.22;5104629;28;20531;-69
2021/10/01 00:42:07;;;;;;;5.82;1.40;;;;;;;11.20;92.61;100414.91;5104508;28;20048;-70
2021/10/01 00:44:32;;;;;;;7.40;1.50;;;;;;;11.14;93.09;100421.91;5104543;28;20030;-71
2021/10/01 00:46:58;;;;;;;7.40;1.70;;;;;;;11.19;92.81;100411.44;5104501;28;20071;-72
2021/10/01 00:49:23;;;;;;;6.40;1.75;;;;;;;11.15;93.01;100407.16;5104694;28;20028;-73
2021/10/01 00:51:51;;;;;;;5.63;1.50;;;;;;;11.22;92.79;100407.94;5086283;28;20027;-73
2021/10/01 00:54:16;;;;;;;8.93;1.90;;;;;;;11.22;93.21;100394.94;5104244;28;20035;-72
2021/10/01 00:56:42;;;;;;;10.85;1.83;;;;;;;11.22;93.05;100382.84;5104062;28;20028;-71
2021/10/01 00:59:07;;;;;;;6.80;2.22;;;;;;;11.27;93.15;100400.97;5104076;28;20028;-71
2021/10/01 01:01:32;;;;;;;11.90;2.38;;;;;;;11.29;93.12;100399.22;5104206;28;20035;-72
2021/10/01 01:04:04;;;;;;;6.63;2.88;;;;;;;11.32;93.38;100396.59;5104047;28;20084;-72
2021/10/01 01:06:30;;;;;;;;;;;;;;;11.36;93.10;100398.25;5104551;28;20079;-71
2021/10/01 01:08:59;;;;;;;9.65;3.17;;;;;;;11.36;93.16;100390.47;5104070;28;19915;-73
2021/10/01 01:11:51;;;;;;;4.63;2.15;;;;;;;11.26;93.25;100386.25;5104141;28;20043;-72
2021/10/01 01:14:23;;;;;;;13.43;2.95;;;;;;;11.26;93.23;100386.25;5104015;28;20020;-73
2021/10/01 01:16:50;;;;;;;20.73;4.30;;;;;;;11.21;92.92;100388.03;5104058;28;20082;-73
2021/10/01 01:19:53;;;;;;;14.48;3.97;;;;;;;11.22;93.00;100397.56;5104044;28;20264;-73
2021/10/01 01:22:30;;;;;;;12.48;3.88;;;;;;;11.17;93.41;100389.81;5103972;28;20258;-73
2021/10/01 01:25:14;;;;;;;22.30;4.63;;;;;;;11.26;92.70;100383.66;5103642;28;20099;-74
2021/10/01 01:28:12;;;;;;;20.25;6.00;;;;;;;11.15;93.08;100391.56;5103713;28;20051;-71
2021/10/01 01:30:44;;;;;;;17.05;4.03;;;;;;;11.13;93.27;100381.19;5103484;28;20020;-73
2021/10/01 01:33:17;;;;;;;22.67;4.60;;;;;;;11.10;93.32;100382.97;5103643;28;20084;-73
2021/10/01 01:35:44;;;;;;;18.00;4.22;;;;;;;11.04;93.49;100373.50;5103542;28;20024;-73
2021/10/01 01:38:09;;;;;;;25.20;4.53;;;;;;;11.02;93.68;100375.28;5103633;28;20048;-72
2021/10/01 01:40:37;;;;;;;15.02;4.75;;;;;;;10.99;93.83;100376.13;5103567;28;20051;-72
2021/10/01 01:43:06;;;;;;;17.92;4.45;;;;;;;11.00;93.46;100377.00;5103685;28;20024;-77
2021/10/01 01:45:36;;;;;;;21.77;4.68;;;;;;;11.02;93.27;100370.06;5103255;28;20024;-72
2021/10/01 01:48:03;;;;;;;11.20;3.45;;;;;;;10.96;93.57;100381.38;5084605;28;20047;-72
2021/10/01 01:50:29;;;;;;;9.80;4.18;;;;;;;10.90;93.48;100365.84;5103585;28;20020;-70
2021/10/01 01:52:55;;;;;;;16.58;4.15;;;;;;;10.81;93.54;100359.03;5103472;28;20028;-70
2021/10/01 01:55:22;;;;;;;11.25;3.25;;;;;;;10.85;92.96;100362.44;5103310;28;20024;-70
2021/10/01 01:57:50;;;;;;;7.82;2.58;;;;;;;10.73;93.68;100353.03;5103168;28;20539;-69
2021/10/01 02:00:17;;;;;;;13.93;3.15;;;;;;;10.68;93.27;100349.63;5103212;28;20396;-70
2021/10/01 02:02:43;;;;;;;14.65;4.45;;;;;;;10.66;92.97;100345.31;5103347;28;20035;-69
2021/10/01 02:05:10;;;;;;;12.38;3.40;;;;;;;10.63;93.37;100345.34;5103242;28;20031;-69
2021/10/01 02:07:39;;;;;;;6.80;1.92;;;;;;;10.58;93.50;100362.69;5103277;28;20024;-68
2021/10/01 02:10:05;;;;;;;18.55;4.38;;;;;;;10.65;92.87;100355.72;5103304;28;20027;-69
2021/10/01 02:12:33;;;;;;;12.98;4.10;;;;;;;10.56;93.35;100348.88;5103267;28;20020;-69
2021/10/01 02:15:00;;;;;;;9.07;3.15;;;;;;;10.50;93.63;100344.59;5103041;28;20360;-68
2021/10/01 02:17:29;;;;;;;9.43;2.83;;;;;;;10.49;93.77;100342.88;5103281;28;20458;-69
2021/10/01 02:19:57;;;;;;;18.48;3.90;;;;;;;10.45;93.84;100333.34;5103272;28;20032;-69
2021/10/01 02:22:26;;;;;;;13.13;2.70;;;;;;;10.44;94.27;100338.56;5102973;28;20020;-70
2021/10/01 02:24:52;;;;;;;5.38;1.77;;;;;;;10.56;93.91;100329.84;5102965;28;20509;-69
2021/10/01 02:27:36;;;;;;;8.40;2.03;;;;;;;10.64;92.97;100328.03;5103121;28;20032;-69
2021/10/01 02:30:10;;;;;;;4.80;2.03;;;;;;;10.63;92.87;100327.19;5102888;28;20024;-70
2021/10/01 02:32:59;;;;;;;14.07;3.47;;;;;;;10.58;93.05;100318.56;5103038;28;20058;-70
2021/10/01 02:35:25;;;;;;;8.45;2.70;;;;;;;10.52;93.24;100323.81;5103262;28;20020;-70
2021/10/01 02:37:51;;;;;;;17.52;3.95;;;;;;;10.62;92.64;100315.06;5103008;28;20031;-69
2021/10/01 02:40:17;;;;;;;9.65;2.30;;;;;;;10.47;93.43;100321.28;5102918;28;20020;-69
2021/10/01 02:42:42;;;;;;;17.52;4.88;;;;;;;10.44;94.05;100312.63;5103110;28;20088;-70
2021/10/01 02:45:08;;;;;;;11.90;3.30;;;;;;;10.47;93.71;100302.22;5084667;28;20024;-68
2021/10/01 02:47:35;;;;;;;7.07;3.38;;;;;;;10.45;94.03;100296.19;5102969;28;20161;-68
2021/10/01 02:50:06;;;;;;;6.85;2.67;;;;;;;10.46;93.99;100288.41;5102969;28;20016;-69
2021/10/01 02:52:55;;;;;;;13.63;3.03;;;;;;;10.45;94.39;100291.00;5102858;28;20057;-68
2021/10/01 02:55:39;;;;;;;15.40;3.22;;;;;;;10.44;94.27;100273.69;5088310;28;20040;-69
2021/10/01 02:58:19;;;;;;;17.13;3.08;;;;;;;10.60;93.78;100266.63;5102664;28;20479;-69
2021/10/01 03:00:45;;;;;;;6.57;1.83;;;;;;;10.51;94.31;100267.59;5106124;28;20031;-68
2021/10/01 03:03:15;;;;;;;5.47;2.10;;;;;;;10.58;93.62;100268.38;5106658;28;20030;-68
2021/10/01 03:05:42;;;;;;;9.68;2.67;;;;;;;10.57;93.64;100259.75;5106596;28;20098;-68
2021/10/01 03:08:10;;;;;;;10.27;1.90;;;;;;;10.63;93.49;100249.28;5106449;28;20024;-66
2021/10/01 03:10:36;;;;;;;12.57;3.33;;;;;;;10.59;93.97;100257.97;5106437;28;20111;-67
2021/10/01 03:13:02;;;;;;;10.07;3.13;;;;;;;10.68;93.23;100245.78;5106218;28;20329;-68
2021/10/01 03:15:28;;;;;;;0.20;0.20;;;;;;;10.74;92.72;100246.56;5106159;28;20042;-67
2021/10/01 03:17:54;;;;;;;0.20;0.20;;;;;;;10.74;92.46;100241.38;5106507;28;20024;-68
2021/10/01 03:20:19;;;;;;;0.20;0.20;;;;;;;10.61;93.01;100232.88;5106171;28;20264;-68
2021/10/01 03:22:45;;;;;;;0.20;0.20;;;;;;;10.63;92.92;100230.25;5106010;28;20066;-67
2021/10/01 03:25:12;;;;;;;0.20;0.20;;;;;;;10.52;93.31;100239.03;5106160;28;20412;-68
2021/10/01 03:27:38;;;;;;;0.30;0.30;;;;;;;10.58;93.64;100234.63;5106124;28;20020;-66
2021/10/01 03:30:08;;;;;;;0.20;0.20;;;;;;;10.53;93.82;100226.91;5106059;28;20034;-66
2021/10/01 03:32:34;;;;;;;0.20;0.20;;;;;;;10.53;93.82;100221.69;5105860;28;20031;-67
2021/10/01 03:35:02;;;;;;;0.20;0.20;;;;;;;10.50;94.42;100233.00;5105970;28;20028;-67
2021/10/01 03:37:28;;;;;;;0.20;0.20;;;;;;;10.62;93.72;100229.38;5105840;28;20020;-67
2021/10/01 03:39:59;;;;;;;0.20;0.20;;;;;;;10.53;93.94;100226.91;5105840;28;20022;-66
2021/10/01 03:42:25;;;;;;;0.20;0.20;;;;;;;10.60;93.44;100220.78;5087436;28;20016;-67
2021/10/01 03:44:52;;;;;;;0.25;0.25;;;;;;;10.63;93.31;100223.34;5105471;28;20031;-66
2021/10/01 03:47:17;;;;;;;0.20;0.20;;;;;;;10.57;93.71;100215.63;5105782;28;20036;-66
2021/10/01 03:49:43;;;;;;;0.20;0.20;;;;;;;10.62;92.82;100213.81;5105622;28;20030;-67
2021/10/01 03:52:10;;;;;;;0.30;0.30;;;;;;;10.70;92.21;100215.47;5105539;28;20027;-66
2021/10/01 03:54:37;;;;;;;0.20;0.20;;;;;;;10.52;93.16;100215.69;5105448;28;20058;-66
2021/10/01 03:57:03;;;;;;;0.30;0.30;;;;;;;10.44;93.58;100204.47;5105664;28;20057;-66
2021/10/01 03:59:28;;;;;;;0.30;0.30;;;;;;;10.40;94.25;100208.84;5105527;28;20027;-66
2021/10/01 04:01:54;;;;;;;0.20;0.20;;;;;;;10.47;93.55;100207.06;5105251;28;20482;-67
2021/10/01 04:04:19;;;;;;;0.20;0.20;;;;;;;10.36;94.14;100209.75;5105271;28;20028;-72
2021/10/01 04:06:44;;;;;;;0.20;0.20;;;;;;;10.36;94.26;100204.56;5105461;28;20016;-66
2021/10/01 04:09:10;;;;;;;0.40;0.40;;;;;;;10.28;94.70;100190.81;5105108;28;20032;-66
2021/10/01 04:11:37;;;;;;;0.20;0.20;;;;;;;10.47;94.08;100206.19;5104393;28;20020;-66
2021/10/01 04:14:03;;;;;;;0.20;0.20;;;;;;;10.39;94.28;100186.38;5105059;28;20091;-65
2021/10/01 04:16:29;;;;;;;0.20;0.20;;;;;;;10.46;94.14;100194.97;5105212;28;20051;-66
2021/10/01 04:18:54;;;;;;;0.47;0.47;;;;;;;10.49;94.11;100196.66;5104936;28;20037;-66
2021/10/01 04:21:19;;;;;;;0.20;0.20;;;;;;;10.52;93.49;100188.84;5086477;28;20036;-70
2021/10/01 04:23:45;;;;;;;0.30;0.30;;;;;;;10.41;94.40;100184.59;5105069;28;20040;-70
2021/10/01 04:26:10;;;;;;;0.40;0.40;;;;;;;10.58;94.10;100174.94;5086441;28;20552;-65
2021/10/01 04:28:35;;;;;;;0.20;0.20;;;;;;;10.49;94.61;100183.69;5104860;28;20028;-65
2021/10/01 04:31:01;;;;;;;0.20;0.20;;;;;;;10.53;94.23;100173.25;5104590;28;20023;-64
2021/10/01 04:33:28;;;;;;;0.20;0.20;;;;;;;10.47;94.58;100170.72;5086533;28;20085;-64
2021/10/01 04:35:53;;;;;;;0.30;0.30;;;;;;;10.45;94.57;100161.22;5104674;28;20024;-67
2021/10/01 04:38:21;;;;;;;0.20;0.20;;;;;;;10.48;94.82;100182.81;5086258;28;20028;-66
2021/10/01 04:40:47;;;;;;;0.20;0.20;;;;;;;10.43;95.30;100166.44;5104590;28;20026;-67
2021/10/01 04:43:12;;;;;;;0.30;0.30;;;;;;;10.59;94.42;100154.13;5104761;28;20020;-68
2021/10/01 04:45:37;;;;;;;5.07;1.17;;;;;;;10.79;93.56;100160.81;5104267;28;20410;-68
2021/10/01 04:48:05;;;;;;;7.55;2.08;;;;;;;10.54;93.92;100153.34;5104792;28;20020;-67
2021/10/01 04:50:32;;;;;;;8.75;2.70;;;;;;;10.52;94.26;100179.34;5104588;28;20026;-66
2021/10/01 04:52:57;;;;;;;5.28;2.00;;;;;;;10.60;93.96;100165.38;5104310;28;20467;-68
2021/10/01 04:55:23;;;;;;;4.43;1.42;;;;;;;10.53;94.25;100162.00;5104506;28;20024;-67
2021/10/01 04:57:50;;;;;;;7.03;1.88;;;;;;;10.59;93.84;100163.69;5104484;28;20034;-66
2021/10/01 05:00:15;;;;;;;5.15;1.55;;;;;;;10.60;94.00;100161.06;5104270;28;20070;-63
2021/10/01 05:02:40;;;;;;;1.92;0.88;;;;;;;10.58;93.59;100162.81;5104193;28;20047;-66
2021/10/01 05:05:06;;;;;;;5.25;1.30;;;;;;;10.59;93.45;100161.09;5104075;28;20020;-68
2021/10/01 05:07:31;;;;;;;3.30;1.55;;;;;;;10.58;93.75;100165.41;5104005;28;20492;-67
2021/10/01 05:09:57;;;;;;;13.30;2.25;;;;;;;10.57;93.51;100148.13;5104074;28;20024;-68
2021/10/01 05:12:22;;;;;;;0.20;0.20;;;;;;;10.44;94.17;100157.75;5085662;28;20080;-68
2021/10/01 05:14:47;;;;;;;0.20;0.20;;;;;;;10.58;94.06;100130.78;5103949;28;20070;-68
2021/10/01 05:17:13;;;;;;;0.22;0.22;;;;;;;10.66;92.80;100128.97;5085597;28;20020;-66
2021/10/01 05:19:38;;;;;;;0.20;0.20;;;;;;;10.53;93.08;100120.47;5103697;28;20073;-65
2021/10/01 05:22:04;;;;;;;0.20;0.20;;;;;;;10.58;93.06;100130.78;5103459;28;20098;-65
2021/10/01 05:24:29;;;;;;;0.20;0.20;;;;;;;10.50;93.48;100118.78;5103738;28;20059;-67
2021/10/01 05:26:57;;;;;;;0.20;0.20;;;;;;;10.48;93.99;100096.34;5103694;28;20500;-67
2021/10/01 05:29:23;;;;;;;0.50;0.50;;;;;;;10.64;92.98;100107.34;5103636;28;20028;-66
2021/10/01 05:31:48;;;;;;;0.30;0.30;;;;;;;10.46;94.03;100119.72;5103567;28;20020;-66
2021/10/01 05:34:14;;;;;;;0.30;0.30;;;;;;;10.40;94.49;100110.22;5103704;28;20030;-66
2021/10/01 05:36:39;;;;;;;0.30;0.30;;;;;;;10.52;93.90;100122.22;5103756;28;20035;-66
2021/10/01 05:39:05;;;;;;;0.30;0.30;;;;;;;10.49;94.19;100126.59;5103513;28;20437;-67
2021/10/01 05:41:30;;;;;;;0.32;0.32;;;;;;;10.68;94.06;100134.13;5103412;28;20107;-65
2021/10/01 05:43:56;;;;;;;0.32;0.32;;;;;;;10.59;93.93;100124.75;5103713;28;20389;-66
2021/10/01 05:46:22;;;;;;;0.20;0.20;;;;;;;10.52;94.53;100130.00;5103399;28;20027;-66
2021/10/01 05:48:52;;;;;;;0.25;0.25;;;;;;;10.66;94.60;100142.81;5103468;28;20105;-67
2021/10/01 05:51:18;;;;;;;0.20;0.20;;;;;;;10.73;94.27;100135.81;5103399;28;20016;-66
2021/10/01 05:56:10;;;;;;;0.20;0.20;;;;;;;10.62;94.77;100119.50;5103662;28;20088;-67
2021/10/01 05:58:36;;;;;;;0.30;0.30;;;;;;;10.56;95.38;100133.41;5103402;28;20032;-65
2021/10/01 06:01:03;;;;;;;0.20;0.20;;;;;;;10.65;94.62;100137.63;5084735;28;20370;-66
2021/10/01 06:03:28;;;;;;;0.30;0.30;;;;;;;10.62;95.16;100143.72;5103665;28;20395;-67
2021/10/01 06:05:54;;;;;;;0.20;0.20;;;;;;;10.64;95.17;100121.19;5103495;28;20484;-68
2021/10/01 06:08:19;;;;;;;0.40;0.40;;;;;;;10.72;95.16;100138.44;5102960;28;20028;-68
2021/10/01 06:10:45;;;;;;;0.22;0.22;;;;;;;10.76;94.86;100140.09;5103077;28;20065;-69
2021/10/01 06:13:10;;;;;;;0.30;0.30;;;;;;;10.61;95.89;100138.53;5103205;28;20038;-68
2021/10/01 06:15:36;;;;;;;0.20;0.20;;;;;;;10.59;95.95;100137.72;5102818;28;20103;-68
2021/10/01 06:18:01;;;;;;;0.20;0.20;;;;;;;10.74;95.41;100144.44;5102866;28;20046;-67
2021/10/01 06:20:27;;;;;;;0.20;0.20;;;;;;;10.69;95.88;100148.84;5103035;28;20376;-68
2021/10/01 06:22:52;;;;;;;8.65;1.90;;;;;;;10.89;94.22;100151.19;5102955;28;20045;-69
2021/10/01 06:25:18;;;;;;;6.13;2.22;;;;;;;10.81;95.10;100148.69;5102985;28;20222;-67
2021/10/01 06:27:43;;;;;;;12.90;2.40;;;;;;;10.80;94.90;100170.31;5103177;28;20020;-67
2021/10/01 06:30:09;;;;;;;4.55;1.27;;;;;;;10.86;94.52;100164.19;5102970;28;20107;-69
2021/10/01 06:32:38;;;;;;;9.95;2.80;;;;;;;10.75;95.14;100159.16;5102917;28;20059;-68
2021/10/01 06:35:05;;;;;;;4.00;2.30;;;;;;;10.80;95.16;100170.31;5105877;28;20122;-66
2021/10/01 06:37:31;;;;;;;0.20;0.20;;;;;;;10.79;95.53;100158.22;5122751;28;20050;-69
2021/10/01 06:39:57;;;;;;;0.30;0.30;;;;;;;10.85;94.73;100168.53;5106922;28;20024;-67
2021/10/01 06:42:23;;;;;;;0.20;0.20;;;;;;;10.76;95.24;100166.94;5106946;28;20023;-68
2021/10/01 06:44:51;;;;;;;0.22;0.22;;;;;;;10.74;95.56;100168.66;5106696;28;20100;-68
2021/10/01 06:47:58;;;;;;;0.50;0.50;;;;;;;10.85;94.99;100159.88;5106785;28;20492;-68
2021/10/01 07:21:08;;;;;;;0.30;0.30;;;;;;;10.79;96.17;100181.59;5106922;28;20059;-68
2021/10/01 08:19:43;;;;;;;0.20;0.20;;;;;;;11.09;96.59;100214.97;5105037;28;20088;-68
2021/10/01 08:22:09;;;;;;;0.20;0.20;;;;;;;11.02;96.85;100225.44;5104708;28;20047;-67
2021/10/01 08:24:35;;;;;;;0.20;0.20;;;;;;;11.01;97.26;100222.84;5104591;28;20027;-67
2021/10/01 08:27:03;;;;;;;0.20;0.20;;;;;;;11.06;97.35;100239.25;5104918;28;20028;-67
2021/10/01 08:29:29;;;;;;;0.20;0.20;;;;;;;11.09;97.35;100221.03;5104579;28;20515;-66
2021/10/01 08:32:00;;;;;;;0.50;0.50;;;;;;;11.12;97.28;100223.59;5104667;28;20035;-66
2021/10/01 08:34:27;;;;;;;9.17;3.40;;;;;;;11.10;97.44;100238.31;5086269;28;20027;-69
2021/10/01 08:36:53;;;;;;;6.03;2.60;;;;;;;11.11;97.08;100221.00;5104493;28;20109;-66
2021/10/01 08:39:18;;;;;;;10.45;2.97;;;;;;;11.10;97.25;100221.91;5104880;28;20024;-67
2021/10/01 08:41:44;;;;;;;10.10;2.60;;;;;;;11.12;97.35;100226.19;5104366;28;20024;-67
2021/10/01 08:44:10;;;;;;;7.45;2.78;;;;;;;11.19;96.92;100231.28;5104662;28;20073;-67
2021/10/01 08:46:36;;;;;;;2.00;0.85;;;;;;;11.16;96.87;100232.19;5104457;28;20039;-67
2021/10/01 08:49:04;;;;;;;8.63;2.83;;;;;;;11.14;97.32;100228.75;5104522;28;20020;-67
2021/10/01 08:51:29;;;;;;;3.15;1.48;;;;;;;11.14;97.06;100229.63;5104441;28;20027;-67
2021/10/01 08:53:56;;;;;;;3.35;1.20;;;;;;;11.18;97.25;100229.59;5104369;28;20024;-67
2021/10/01 08:56:23;;;;;;;12.18;2.50;;;;;;;11.20;97.23;100231.25;5104147;28;20524;-67
2021/10/01 08:58:49;;;;;;;0.30;0.30;;;;;;;11.13;97.64;100232.25;5104416;28;20056;-67
2021/10/01 09:01:14;;;;;;;0.25;0.25;;;;;;;11.17;97.50;100207.09;5104049;28;20028;-67
2021/10/01 09:03:41;;;;;;;0.20;0.20;;;;;;;11.17;97.55;100227.88;5104456;28;20024;-68
2021/10/01 09:06:07;;;;;;;9.05;2.53;;;;;;;11.19;97.40;100236.47;5104328;28;20043;-66
2021/10/01 09:08:34;;;;;;;5.55;1.98;;;;;;;11.22;97.45;100232.13;5104595;28;20460;-66
2021/10/01 09:11:06;;;;;;;0.20;0.20;;;;;;;11.22;97.58;100233.84;5104152;28;20035;-66
2021/10/01 09:13:34;;;;;;;0.25;0.25;;;;;;;11.21;97.71;100224.34;5103907;28;20486;-67
2021/10/01 09:16:10;;;;;;;0.20;0.20;;;;;;;11.22;97.71;100242.50;5103881;28;20085;-67
2021/10/01 09:18:38;;;;;;;0.30;0.30;;;;;;;11.23;97.57;100233.81;5103986;28;20053;-67
2021/10/01 09:21:13;;;;;;;0.20;0.20;;;;;;;11.26;97.46;100248.53;5103823;28;20031;-66
2021/10/01 09:23:45;;;;;;;0.30;0.30;;;;;;;11.26;97.78;100233.78;5103877;28;20020;-67
2021/10/01 09:26:17;;;;;;;0.30;0.30;;;;;;;11.31;97.32;100233.72;5103633;28;20123;-67
2021/10/01 09:29:05;;;;;;;0.30;0.30;;;;;;;11.29;97.73;100243.28;5103769;28;20084;-68
2021/10/01 09:31:31;;;;;;;0.30;0.30;;;;;;;11.32;97.70;100240.66;5103479;28;20405;-65
2021/10/01 09:33:57;;;;;;;0.20;0.20;;;;;;;11.30;97.63;100236.31;5103743;28;20038;-66
2021/10/01 09:36:25;;;;;;;0.20;0.20;;;;;;;11.29;97.73;100227.69;5103581;28;20047;-66
2021/10/01 09:38:51;;;;;;;0.20;0.20;;;;;;;11.31;97.81;100240.66;5103581;28;20052;-66
2021/10/01 09:41:31;;;;;;;0.20;0.20;;;;;;;11.34;97.62;100241.47;5103475;28;20027;-66
2021/10/01 09:44:13;;;;;;;0.20;0.20;;;;;;;11.34;97.63;100241.47;5103696;28;20034;-67
2021/10/01 09:46:45;;;;;;;0.30;0.30;;;;;;;11.35;97.50;100245.81;5103487;28;20032;-67
2021/10/01 09:49:14;;;;;;;0.20;0.20;;;;;;;11.31;97.72;100241.50;5103616;28;20028;-67
2021/10/01 09:51:50;;;;;;;0.20;0.20;;;;;;;11.32;97.64;100252.78;5103579;28;20448;-67
2021/10/01 09:54:16;;;;;;;0.20;0.20;;;;;;;11.33;97.85;100257.06;5103544;28;20090;-67
2021/10/01 09:56:42;;;;;;;0.20;0.20;;;;;;;11.38;97.97;100255.28;5103528;28;20027;-67
2021/10/01 09:59:11;;;;;;;0.20;0.20;;;;;;;11.38;97.89;100247.47;5103429;28;20024;-67
2021/10/01 10:02:06;;;;;;;0.30;0.30;;;;;;;11.40;97.70;100246.59;5102989;28;20054;-67
2021/10/01 10:04:42;;;;;;;0.30;0.30;;;;;;;11.37;97.99;100246.63;5103328;28;20024;-66
2021/10/01 10:07:08;;;;;;;0.20;0.20;;;;;;;11.39;97.95;100251.78;5103348;28;20026;-67
2021/10/01 10:09:37;;;;;;;0.28;0.28;;;;;;;11.36;97.76;100252.69;5105489;28;20091;-67
2021/10/01 10:12:03;;;;;;;0.20;0.20;;;;;;;11.40;98.03;100245.72;5107310;28;20020;-67
2021/10/01 10:14:33;;;;;;;0.20;0.20;;;;;;;11.42;98.02;100243.09;5107268;28;20031;-66
2021/10/01 10:16:59;;;;;;;0.20;0.20;;;;;;;11.41;97.85;100265.63;5107316;28;20052;-67
2021/10/01 10:19:30;;;;;;;0.20;0.20;;;;;;;11.42;97.89;100263.91;5107357;28;20028;-66
2021/10/01 10:21:55;;;;;;;0.20;0.20;;;;;;;11.43;97.85;100256.09;5107300;28;20568;-67
2021/10/01 10:24:21;;;;;;;0.30;0.30;;;;;;;11.43;98.04;100255.22;5107246;28;20044;-67
2021/10/01 10:26:47;;;;;;;0.20;0.20;;;;;;;11.45;97.91;100256.94;5107080;28;20048;-67
2021/10/01 10:29:13;;;;;;;0.20;0.20;;;;;;;11.45;98.14;100262.13;5107104;28;20024;-68
2021/10/01 10:31:46;;;;;;;0.30;0.30;;;;;;;11.40;98.08;100259.59;5088898;28;20020;-68
2021/10/01 10:34:29;;;;;;;0.20;0.20;;;;;;;11.47;98.08;100267.31;5107341;28;20020;-69
2021/10/01 10:37:09;;;;;;;0.20;0.20;;;;;;;11.50;98.15;100275.06;5107055;28;20031;-68
2021/10/01 10:39:49;;;;;;;0.30;0.30;;;;;;;11.53;98.30;100268.06;5106954;28;20028;-68
2021/10/01 10:42:20;;;;;;;0.30;0.30;;;;;;;11.55;98.04;100270.63;5106765;28;20028;-67
2021/10/01 10:44:53;;;;;;;0.20;0.20;;;;;;;11.58;97.91;100275.78;5106732;28;20020;-67
2021/10/01 10:47:43;;;;;;;0.20;0.20;;;;;;;11.59;97.57;100274.91;5106808;28;20387;-68
2021/10/01 10:50:26;;;;;;;0.20;0.20;;;;;;;11.51;98.11;100282.84;5106778;28;20024;-67
2021/10/01 10:53:04;;;;;;;0.20;0.20;;;;;;;11.51;97.92;100285.44;5106626;28;20045;-67
2021/10/01 10:55:40;;;;;;;0.20;0.20;;;;;;;11.59;97.74;100272.31;5106730;28;20034;-68
2021/10/01 10:58:24;;;;;;;0.30;0.30;;;;;;;11.59;97.97;100280.13;5106977;28;20420;-67
2021/10/01 11:00:58;;;;;;;0.30;0.30;;;;;;;11.54;97.68;100276.72;5106428;28;20028;-69
2021/10/01 11:03:28;;;;;;;0.20;0.20;;;;;;;11.58;97.76;100275.78;5106592;28;20020;-68
2021/10/01 11:06:08;;;;;;;0.28;0.28;;;;;;;11.59;97.94;100280.13;5106607;28;20019;-67
2021/10/01 11:08:38;;;;;;;0.20;0.20;;;;;;;11.63;97.84;100268.78;5106609;28;20047;-68
2021/10/01 11:11:04;;;;;;;0.30;0.30;;;;;;;11.56;98.11;100282.75;5106376;28;20448;-66
2021/10/01 11:13:34;;;;;;;0.20;0.20;;;;;;;11.67;98.06;100284.34;5106587;28;20121;-67
2021/10/01 11:16:09;;;;;;;0.40;0.40;;;;;;;11.60;97.84;100291.34;5106159;28;20020;-67
2021/10/01 11:18:46;;;;;;;0.30;0.30;;;;;;;11.63;97.59;100294.78;5106388;28;20024;-67
2021/10/01 11:21:30;;;;;;;0.20;0.20;;;;;;;11.67;97.58;100292.13;5106129;28;20652;-67
2021/10/01 11:23:59;;;;;;;0.20;0.20;;;;;;;11.71;97.17;100286.03;5106221;28;20083;-66
2021/10/01 11:26:33;;;;;;;0.30;0.30;;;;;;;11.75;96.46;100288.56;5105859;28;20097;-68
2021/10/01 11:28:59;;;;;;;0.20;0.20;;;;;;;11.60;97.25;100279.22;5106301;28;20464;-67
2021/10/01 11:31:37;;;;;;;0.20;0.20;;;;;;;11.62;97.23;100281.81;5105847;28;20020;-67
2021/10/01 11:34:02;;;;;;;0.20;0.20;;;;;;;11.61;97.56;100282.69;5105965;28;20027;-67
2021/10/01 11:36:28;;;;;;;0.68;0.35;;;;;;;11.60;97.48;100291.34;5105870;28;20024;-67
2021/10/01 11:39:11;;;;;;;12.32;4.93;;;;;;;11.56;97.52;100274.97;5105883;28;20024;-67
2021/10/01 11:41:46;;;;;;;9.38;4.68;;;;;;;11.72;96.33;100274.72;5105816;28;20030;-68
2021/10/01 11:44:16;;;;;;;13.23;4.30;;;;;;;11.61;96.67;100280.09;5106011;28;20035;-68
2021/10/01 11:46:45;;;;;;;10.68;3.60;;;;;;;11.60;96.70;100274.03;5106004;28;20028;-68
2021/10/01 11:49:21;;;;;;;0.30;0.30;;;;;;;11.61;96.53;100295.69;5105985;28;20016;-67
2021/10/01 11:52:01;;;;;;;0.20;0.20;;;;;;;11.53;96.93;100282.81;5105833;28;20024;-67
2021/10/01 11:54:26;;;;;;;0.20;0.20;;;;;;;11.54;96.93;100292.31;5105785;28;20039;-68
2021/10/01 11:56:57;;;;;;;0.20;0.20;;;;;;;11.52;97.23;100294.06;5105435;28;20020;-68
2021/10/01 11:59:25;;;;;;;0.22;0.22;;;;;;;11.62;96.27;100293.06;5105382;28;20020;-68
2021/10/01 12:02:00;;;;;;;0.20;0.20;;;;;;;11.57;96.24;100289.66;5105332;28;20028;-67
2021/10/01 12:04:33;;;;;;;0.20;0.20;;;;;;;11.54;96.66;100297.50;5105561;28;20039;-68
2021/10/01 12:07:04;;;;;;;0.20;0.20;;;;;;;11.52;96.61;100286.28;5105366;28;20019;-68
2021/10/01 12:09:29;;;;;;;0.20;0.20;;;;;;;11.49;96.79;100289.78;5105421;28;20035;-68
2021/10/01 12:11:55;;;;;;;0.30;0.30;;;;;;;11.51;97.05;100294.97;5105175;28;20008;-68
2021/10/01 12:14:21;;;;;;;0.30;0.30;;;;;;;11.52;96.51;100297.53;5105267;28;20016;-69
2021/10/01 12:16:56;;;;;;;0.30;0.30;;;;;;;11.53;96.40;100296.66;5105083;28;20031;-68
2021/10/01 12:19:23;;;;;;;0.20;0.20;;;;;;;11.41;97.04;100294.22;5105116;28;20029;-68
2021/10/01 12:22:02;;;;;;;0.20;0.20;;;;;;;11.44;97.15;100295.94;5105132;28;20020;-69
2021/10/01 12:24:28;;;;;;;0.30;0.30;;;;;;;11.45;96.81;100282.06;5104945;28;20045;-68
2021/10/01 12:26:55;;;;;;;0.65;0.65;;;;;;;11.47;96.73;100288.09;5104854;28;20051;-69
2021/10/01 12:29:27;;;;;;;0.28;0.28;;;;;;;11.46;96.65;100282.03;5104996;28;20016;-68
2021/10/01 12:31:56;;;;;;;;;;;;;;;11.62;96.14;100277.47;5104670;28;20035;-69
2021/10/01 12:34:34;;;;;;;0.30;0.30;;;;;;;11.46;96.36;100262.97;5104843;28;19914;-69
2021/10/01 12:37:06;;;;;;;0.73;0.73;;;;;;;11.57;95.62;100274.06;5104849;28;20020;-69
2021/10/01 12:39:35;;;;;;;0.20;0.20;;;;;;;11.54;95.98;100271.53;5104873;28;20020;-69
2021/10/01 12:42:03;;;;;;;0.30;0.30;;;;;;;11.46;96.42;100281.16;5104500;28;20027;-69
2021/10/01 12:44:36;;;;;;;1.88;1.65;;;;;;;11.56;95.75;100259.38;5104670;28;20044;-69
2021/10/01 12:47:21;;;;;;;0.30;0.30;;;;;;;11.59;95.37;100264.50;5105015;28;20106;-69
2021/10/01 12:50:19;;;;;;;0.30;0.30;;;;;;;11.46;96.61;100269.03;5103690;28;20034;-69
2021/10/01 12:53:01;;;;;;;0.22;0.22;;;;;;;11.55;96.29;100270.63;5093136;28;20032;-69
2021/10/01 12:55:29;;;;;;;0.20;0.20;;;;;;;11.56;96.01;100267.16;5104656;28;20373;-70
2021/10/01 12:57:54;;;;;;;0.20;0.20;;;;;;;11.56;96.31;100267.16;5104563;28;20050;-69
2021/10/01 13:00:29;;;;;;;0.20;0.20;;;;;;;11.57;96.38;100274.06;5104342;28;20028;-70
2021/10/01 13:03:00;;;;;;;0.50;0.50;;;;;;;11.67;95.67;100268.72;5103829;28;20103;-69